Freeburg, Minnesota
Current Conditions -  °F | °C
As of 12:53 PM on Friday 24 Oct 2014 (Local Time) from KLSE Reporting Station
Overcast Overcast  
Wind Chill: 62°   Ceiling: 6500
Heat Index: 62°   Visibility: 10mi
Dew Point: 53°   Wind: 10mph
Humidity: 72%   Direction: 180°S
Pressure: 29.91"   Gusts: NA
Location:  43.6028°N, 91.445°W
Report Text: KLSE 241753Z 18009KT 10SM FEW050 OVC065 17/12 A2991 RMK AO2 SLP128 T01670117 10167 20106 58022
Loading
Personal Weather Stations






























Interactive Weather Map
Tropical Storm Tracking
New forecast layout! Learn more

10-Day Weather Forecast

Advertisements
Track Severe Weather on mobile